sensor_id;sensor_type;location;lat;lon;timestamp;P1;durP1;ratioP1;P2;durP2;ratioP2
37267;SDS011;23154;52.542;13.362;2023-05-15T00:01:55;18.40;;;7.15;;
37267;SDS011;23154;52.542;13.362;2023-05-15T00:04:21;18.23;;;6.93;;
37267;SDS011;23154;52.542;13.362;2023-05-15T00:06:46;19.27;;;7.03;;
37267;SDS011;23154;52.542;13.362;2023-05-15T00:09:12;18.05;;;7.43;;
37267;SDS011;23154;52.542;13.362;2023-05-15T00:11:38;20.85;;;7.45;;
37267;SDS011;23154;52.542;13.362;2023-05-15T00:14:05;19.83;;;7.78;;
37267;SDS011;23154;52.542;13.362;2023-05-15T00:16:31;20.55;;;7.80;;
37267;SDS011;23154;52.542;13.362;2023-05-15T00:18:57;20.75;;;8.48;;
37267;SDS011;23154;52.542;13.362;2023-05-15T00:21:23;22.83;;;8.20;;
37267;SDS011;23154;52.542;13.362;2023-05-15T00:23:49;22.40;;;8.20;;
37267;SDS011;23154;52.542;13.362;2023-05-15T00:26:17;20.63;;;10.80;;
37267;SDS011;23154;52.542;13.362;2023-05-15T00:28:43;20.58;;;7.68;;
37267;SDS011;23154;52.542;13.362;2023-05-15T00:31:09;21.52;;;7.80;;
37267;SDS011;23154;52.542;13.362;2023-05-15T00:33:37;18.35;;;7.75;;
37267;SDS011;23154;52.542;13.362;2023-05-15T00:36:03;21.00;;;8.40;;
37267;SDS011;23154;52.542;13.362;2023-05-15T00:38:29;19.38;;;7.40;;
37267;SDS011;23154;52.542;13.362;2023-05-15T00:40:57;18.55;;;7.53;;
37267;SDS011;23154;52.542;13.362;2023-05-15T00:43:24;20.35;;;8.35;;
37267;SDS011;23154;52.542;13.362;2023-05-15T00:45:51;19.30;;;7.57;;
37267;SDS011;23154;52.542;13.362;2023-05-15T00:48:17;22.52;;;6.85;;
37267;SDS011;23154;52.542;13.362;2023-05-15T00:50:47;20.33;;;7.40;;
37267;SDS011;23154;52.542;13.362;2023-05-15T00:53:15;19.08;;;7.65;;
37267;SDS011;23154;52.542;13.362;2023-05-15T00:55:43;17.30;;;7.45;;
37267;SDS011;23154;52.542;13.362;2023-05-15T00:58:10;19.52;;;7.25;;
37267;SDS011;23154;52.542;13.362;2023-05-15T01:00:36;19.48;;;6.97;;
37267;SDS011;23154;52.542;13.362;2023-05-15T01:03:03;21.48;;;7.65;;
37267;SDS011;23154;52.542;13.362;2023-05-15T01:05:30;17.13;;;6.65;;
37267;SDS011;23154;52.542;13.362;2023-05-15T01:10:40;18.35;;;7.30;;
37267;SDS011;23154;52.542;13.362;2023-05-15T01:13:08;18.00;;;6.43;;
37267;SDS011;23154;52.542;13.362;2023-05-15T01:15:34;19.10;;;7.70;;
37267;SDS011;23154;52.542;13.362;2023-05-15T01:18:00;19.00;;;7.07;;
37267;SDS011;23154;52.542;13.362;2023-05-15T01:20:27;17.77;;;7.15;;
37267;SDS011;23154;52.542;13.362;2023-05-15T01:22:57;19.48;;;7.78;;
37267;SDS011;23154;52.542;13.362;2023-05-15T01:25:42;18.60;;;7.07;;
37267;SDS011;23154;52.542;13.362;2023-05-15T01:28:11;18.65;;;7.35;;
37267;SDS011;23154;52.542;13.362;2023-05-15T01:30:39;20.27;;;7.40;;
37267;SDS011;23154;52.542;13.362;2023-05-15T01:35:40;19.03;;;7.53;;
37267;SDS011;23154;52.542;13.362;2023-05-15T01:40:55;17.98;;;7.28;;
37267;SDS011;23154;52.542;13.362;2023-05-15T01:43:22;21.38;;;7.65;;
37267;SDS011;23154;52.542;13.362;2023-05-15T01:45:49;19.52;;;7.60;;
37267;SDS011;23154;52.542;13.362;2023-05-15T01:48:15;18.52;;;7.10;;
37267;SDS011;23154;52.542;13.362;2023-05-15T01:50:42;18.05;;;7.30;;
37267;SDS011;23154;52.542;13.362;2023-05-15T01:53:10;20.60;;;8.07;;
37267;SDS011;23154;52.542;13.362;2023-05-15T01:55:36;20.80;;;7.65;;
37267;SDS011;23154;52.542;13.362;2023-05-15T01:58:03;20.17;;;8.18;;
37267;SDS011;23154;52.542;13.362;2023-05-15T02:00:30;18.33;;;7.15;;
37267;SDS011;23154;52.542;13.362;2023-05-15T02:02:57;18.60;;;7.50;;
37267;SDS011;23154;52.542;13.362;2023-05-15T02:05:23;17.85;;;7.60;;
37267;SDS011;23154;52.542;13.362;2023-05-15T02:07:49;18.60;;;7.53;;
37267;SDS011;23154;52.542;13.362;2023-05-15T02:10:16;18.95;;;7.85;;
37267;SDS011;23154;52.542;13.362;2023-05-15T02:12:42;19.75;;;8.05;;
37267;SDS011;23154;52.542;13.362;2023-05-15T02:15:08;22.92;;;8.52;;
37267;SDS011;23154;52.542;13.362;2023-05-15T02:17:35;17.75;;;7.47;;
37267;SDS011;23154;52.542;13.362;2023-05-15T02:20:01;19.13;;;7.60;;
37267;SDS011;23154;52.542;13.362;2023-05-15T02:22:29;19.20;;;7.70;;
37267;SDS011;23154;52.542;13.362;2023-05-15T02:24:55;18.27;;;7.43;;
37267;SDS011;23154;52.542;13.362;2023-05-15T02:30:02;17.38;;;7.25;;
37267;SDS011;23154;52.542;13.362;2023-05-15T02:32:53;17.67;;;7.18;;
37267;SDS011;23154;52.542;13.362;2023-05-15T02:35:26;19.73;;;8.43;;
37267;SDS011;23154;52.542;13.362;2023-05-15T02:37:58;18.83;;;7.07;;
37267;SDS011;23154;52.542;13.362;2023-05-15T02:40:25;20.90;;;7.75;;
37267;SDS011;23154;52.542;13.362;2023-05-15T02:42:53;19.63;;;7.32;;
37267;SDS011;23154;52.542;13.362;2023-05-15T02:45:19;18.00;;;7.38;;
37267;SDS011;23154;52.542;13.362;2023-05-15T02:47:46;17.95;;;7.80;;
37267;SDS011;23154;52.542;13.362;2023-05-15T02:50:14;19.90;;;8.05;;
37267;SDS011;23154;52.542;13.362;2023-05-15T02:52:41;19.17;;;7.35;;
37267;SDS011;23154;52.542;13.362;2023-05-15T02:55:07;18.35;;;8.15;;
37267;SDS011;23154;52.542;13.362;2023-05-15T02:57:33;19.40;;;8.35;;
37267;SDS011;23154;52.542;13.362;2023-05-15T02:59:59;21.55;;;8.23;;
37267;SDS011;23154;52.542;13.362;2023-05-15T03:02:26;18.70;;;7.50;;
37267;SDS011;23154;52.542;13.362;2023-05-15T03:04:52;19.95;;;8.32;;
37267;SDS011;23154;52.542;13.362;2023-05-15T03:07:18;18.52;;;7.95;;
37267;SDS011;23154;52.542;13.362;2023-05-15T03:09:44;20.33;;;7.43;;
37267;SDS011;23154;52.542;13.362;2023-05-15T03:12:10;20.73;;;7.93;;
37267;SDS011;23154;52.542;13.362;2023-05-15T03:14:36;19.30;;;8.00;;
37267;SDS011;23154;52.542;13.362;2023-05-15T03:17:02;20.92;;;8.52;;
37267;SDS011;23154;52.542;13.362;2023-05-15T03:19:28;22.63;;;7.80;;
37267;SDS011;23154;52.542;13.362;2023-05-15T03:21:55;20.17;;;7.75;;
37267;SDS011;23154;52.542;13.362;2023-05-15T03:24:21;22.75;;;8.73;;
37267;SDS011;23154;52.542;13.362;2023-05-15T03:26:47;20.45;;;8.18;;
37267;SDS011;23154;52.542;13.362;2023-05-15T03:29:13;18.50;;;8.05;;
37267;SDS011;23154;52.542;13.362;2023-05-15T03:31:39;19.65;;;8.15;;
37267;SDS011;23154;52.542;13.362;2023-05-15T03:34:05;20.75;;;9.18;;
37267;SDS011;23154;52.542;13.362;2023-05-15T03:36:31;22.70;;;8.38;;
37267;SDS011;23154;52.542;13.362;2023-05-15T03:38:57;20.80;;;8.82;;
37267;SDS011;23154;52.542;13.362;2023-05-15T03:41:23;23.85;;;8.95;;
37267;SDS011;23154;52.542;13.362;2023-05-15T03:43:50;20.23;;;8.10;;
37267;SDS011;23154;52.542;13.362;2023-05-15T03:46:16;19.48;;;8.23;;
37267;SDS011;23154;52.542;13.362;2023-05-15T03:48:42;17.85;;;7.80;;
37267;SDS011;23154;52.542;13.362;2023-05-15T03:51:08;21.17;;;9.45;;
37267;SDS011;23154;52.542;13.362;2023-05-15T03:53:34;21.05;;;8.75;;
37267;SDS011;23154;52.542;13.362;2023-05-15T03:56:00;21.83;;;8.50;;
37267;SDS011;23154;52.542;13.362;2023-05-15T03:58:27;21.48;;;8.52;;
37267;SDS011;23154;52.542;13.362;2023-05-15T04:00:56;24.52;;;8.25;;
37267;SDS011;23154;52.542;13.362;2023-05-15T04:03:21;20.00;;;7.90;;
37267;SDS011;23154;52.542;13.362;2023-05-15T04:05:47;21.80;;;8.27;;
37267;SDS011;23154;52.542;13.362;2023-05-15T04:08:14;21.20;;;8.25;;
37267;SDS011;23154;52.542;13.362;2023-05-15T04:10:40;22.15;;;8.27;;
37267;SDS011;23154;52.542;13.362;2023-05-15T04:13:06;16.80;;;7.43;;
37267;SDS011;23154;52.542;13.362;2023-05-15T04:15:33;19.63;;;7.57;;
37267;SDS011;23154;52.542;13.362;2023-05-15T04:17:59;18.85;;;7.65;;
37267;SDS011;23154;52.542;13.362;2023-05-15T04:20:25;17.95;;;7.32;;
37267;SDS011;23154;52.542;13.362;2023-05-15T04:22:52;19.00;;;7.47;;
37267;SDS011;23154;52.542;13.362;2023-05-15T04:25:18;19.92;;;7.80;;
37267;SDS011;23154;52.542;13.362;2023-05-15T04:27:44;23.35;;;8.98;;
37267;SDS011;23154;52.542;13.362;2023-05-15T04:30:11;19.52;;;8.00;;
37267;SDS011;23154;52.542;13.362;2023-05-15T04:32:38;18.80;;;8.15;;
37267;SDS011;23154;52.542;13.362;2023-05-15T04:35:04;16.85;;;7.57;;
37267;SDS011;23154;52.542;13.362;2023-05-15T04:37:34;17.23;;;7.25;;
37267;SDS011;23154;52.542;13.362;2023-05-15T04:40:00;21.83;;;7.63;;
37267;SDS011;23154;52.542;13.362;2023-05-15T04:42:26;18.17;;;7.47;;
37267;SDS011;23154;52.542;13.362;2023-05-15T04:44:53;18.17;;;7.57;;
37267;SDS011;23154;52.542;13.362;2023-05-15T04:47:19;17.50;;;7.25;;
37267;SDS011;23154;52.542;13.362;2023-05-15T04:49:45;17.98;;;7.55;;
37267;SDS011;23154;52.542;13.362;2023-05-15T04:52:15;17.70;;;6.88;;
37267;SDS011;23154;52.542;13.362;2023-05-15T04:54:41;19.33;;;7.93;;
37267;SDS011;23154;52.542;13.362;2023-05-15T04:57:07;17.27;;;7.82;;
37267;SDS011;23154;52.542;13.362;2023-05-15T04:59:33;17.70;;;7.13;;
37267;SDS011;23154;52.542;13.362;2023-05-15T05:02:00;17.30;;;7.25;;
37267;SDS011;23154;52.542;13.362;2023-05-15T05:04:26;22.83;;;7.32;;
37267;SDS011;23154;52.542;13.362;2023-05-15T05:06:52;16.45;;;5.85;;
37267;SDS011;23154;52.542;13.362;2023-05-15T05:09:18;17.80;;;6.55;;
37267;SDS011;23154;52.542;13.362;2023-05-15T05:11:44;17.55;;;7.20;;
37267;SDS011;23154;52.542;13.362;2023-05-15T05:14:11;15.48;;;6.78;;
37267;SDS011;23154;52.542;13.362;2023-05-15T05:16:37;19.77;;;7.05;;
37267;SDS011;23154;52.542;13.362;2023-05-15T05:19:04;16.33;;;6.57;;
37267;SDS011;23154;52.542;13.362;2023-05-15T05:21:30;16.70;;;6.35;;
37267;SDS011;23154;52.542;13.362;2023-05-15T05:23:57;17.92;;;5.88;;
37267;SDS011;23154;52.542;13.362;2023-05-15T05:26:23;18.75;;;6.47;;
37267;SDS011;23154;52.542;13.362;2023-05-15T05:28:50;17.85;;;6.70;;
37267;SDS011;23154;52.542;13.362;2023-05-15T05:31:16;19.08;;;6.78;;
37267;SDS011;23154;52.542;13.362;2023-05-15T05:33:42;17.92;;;6.63;;
37267;SDS011;23154;52.542;13.362;2023-05-15T05:36:08;22.17;;;6.65;;
37267;SDS011;23154;52.542;13.362;2023-05-15T05:38:35;16.02;;;5.93;;
37267;SDS011;23154;52.542;13.362;2023-05-15T05:41:01;15.93;;;6.45;;
37267;SDS011;23154;52.542;13.362;2023-05-15T05:43:27;16.45;;;5.93;;
37267;SDS011;23154;52.542;13.362;2023-05-15T05:45:53;17.95;;;6.15;;
37267;SDS011;23154;52.542;13.362;2023-05-15T05:48:20;16.90;;;5.93;;
37267;SDS011;23154;52.542;13.362;2023-05-15T05:50:46;13.95;;;5.43;;
37267;SDS011;23154;52.542;13.362;2023-05-15T05:53:12;17.13;;;5.38;;
37267;SDS011;23154;52.542;13.362;2023-05-15T05:55:38;18.15;;;5.65;;
37267;SDS011;23154;52.542;13.362;2023-05-15T05:58:04;17.00;;;5.70;;
37267;SDS011;23154;52.542;13.362;2023-05-15T06:00:30;17.65;;;5.97;;
37267;SDS011;23154;52.542;13.362;2023-05-15T06:02:57;16.25;;;6.18;;
37267;SDS011;23154;52.542;13.362;2023-05-15T06:05:23;15.80;;;5.43;;
37267;SDS011;23154;52.542;13.362;2023-05-15T06:07:50;16.38;;;5.57;;
37267;SDS011;23154;52.542;13.362;2023-05-15T06:10:16;19.15;;;6.45;;
37267;SDS011;23154;52.542;13.362;2023-05-15T06:12:42;17.25;;;5.78;;
37267;SDS011;23154;52.542;13.362;2023-05-15T06:15:09;15.60;;;5.53;;
37267;SDS011;23154;52.542;13.362;2023-05-15T06:17:35;16.27;;;6.05;;
37267;SDS011;23154;52.542;13.362;2023-05-15T06:20:01;15.48;;;6.10;;
37267;SDS011;23154;52.542;13.362;2023-05-15T06:22:31;15.65;;;6.00;;
37267;SDS011;23154;52.542;13.362;2023-05-15T06:24:57;15.02;;;6.13;;
37267;SDS011;23154;52.542;13.362;2023-05-15T06:27:23;16.30;;;6.13;;
37267;SDS011;23154;52.542;13.362;2023-05-15T06:29:50;16.67;;;6.20;;
37267;SDS011;23154;52.542;13.362;2023-05-15T06:32:16;18.65;;;7.03;;
37267;SDS011;23154;52.542;13.362;2023-05-15T06:34:42;15.50;;;6.07;;
37267;SDS011;23154;52.542;13.362;2023-05-15T06:37:08;17.40;;;5.82;;
37267;SDS011;23154;52.542;13.362;2023-05-15T06:39:34;20.63;;;6.80;;
37267;SDS011;23154;52.542;13.362;2023-05-15T06:42:01;18.65;;;5.93;;
37267;SDS011;23154;52.542;13.362;2023-05-15T06:44:28;14.85;;;5.90;;
37267;SDS011;23154;52.542;13.362;2023-05-15T06:46:54;17.88;;;6.13;;
37267;SDS011;23154;52.542;13.362;2023-05-15T06:49:21;16.20;;;6.07;;
37267;SDS011;23154;52.542;13.362;2023-05-15T06:51:47;24.88;;;6.15;;
37267;SDS011;23154;52.542;13.362;2023-05-15T06:54:13;17.75;;;5.95;;
37267;SDS011;23154;52.542;13.362;2023-05-15T06:56:39;16.42;;;6.13;;
37267;SDS011;23154;52.542;13.362;2023-05-15T06:59:05;16.27;;;6.00;;
37267;SDS011;23154;52.542;13.362;2023-05-15T07:01:31;15.48;;;5.20;;
37267;SDS011;23154;52.542;13.362;2023-05-15T07:03:57;16.40;;;6.30;;
37267;SDS011;23154;52.542;13.362;2023-05-15T07:06:23;20.75;;;6.68;;
37267;SDS011;23154;52.542;13.362;2023-05-15T07:08:50;15.00;;;6.07;;
37267;SDS011;23154;52.542;13.362;2023-05-15T07:11:16;18.83;;;6.22;;
37267;SDS011;23154;52.542;13.362;2023-05-15T07:13:42;17.98;;;5.45;;
37267;SDS011;23154;52.542;13.362;2023-05-15T07:16:08;14.00;;;5.18;;
37267;SDS011;23154;52.542;13.362;2023-05-15T07:18:35;15.65;;;5.38;;
37267;SDS011;23154;52.542;13.362;2023-05-15T07:21:01;13.82;;;5.20;;
37267;SDS011;23154;52.542;13.362;2023-05-15T07:23:27;15.77;;;5.53;;
37267;SDS011;23154;52.542;13.362;2023-05-15T07:25:53;19.30;;;6.18;;
37267;SDS011;23154;52.542;13.362;2023-05-15T07:28:19;15.02;;;5.70;;
37267;SDS011;23154;52.542;13.362;2023-05-15T07:30:46;13.57;;;4.97;;
37267;SDS011;23154;52.542;13.362;2023-05-15T07:33:12;19.52;;;5.90;;
37267;SDS011;23154;52.542;13.362;2023-05-15T07:35:38;11.75;;;4.72;;
37267;SDS011;23154;52.542;13.362;2023-05-15T07:38:04;14.43;;;5.13;;
37267;SDS011;23154;52.542;13.362;2023-05-15T07:40:30;15.65;;;5.35;;
37267;SDS011;23154;52.542;13.362;2023-05-15T07:42:57;14.02;;;5.20;;
37267;SDS011;23154;52.542;13.362;2023-05-15T07:45:23;14.77;;;5.30;;
37267;SDS011;23154;52.542;13.362;2023-05-15T07:47:50;16.02;;;4.70;;
37267;SDS011;23154;52.542;13.362;2023-05-15T07:50:16;12.77;;;4.75;;
37267;SDS011;23154;52.542;13.362;2023-05-15T07:52:42;14.85;;;5.20;;
37267;SDS011;23154;52.542;13.362;2023-05-15T07:55:09;14.95;;;5.07;;
37267;SDS011;23154;52.542;13.362;2023-05-15T07:57:35;18.05;;;4.55;;
37267;SDS011;23154;52.542;13.362;2023-05-15T08:00:02;13.70;;;4.95;;
37267;SDS011;23154;52.542;13.362;2023-05-15T08:02:34;12.70;;;4.28;;
37267;SDS011;23154;52.542;13.362;2023-05-15T08:05:00;15.32;;;4.57;;
37267;SDS011;23154;52.542;13.362;2023-05-15T08:07:26;12.30;;;4.45;;
37267;SDS011;23154;52.542;13.362;2023-05-15T08:09:52;12.63;;;4.38;;
37267;SDS011;23154;52.542;13.362;2023-05-15T08:12:20;14.85;;;4.57;;
37267;SDS011;23154;52.542;13.362;2023-05-15T08:14:49;13.35;;;4.90;;
37267;SDS011;23154;52.542;13.362;2023-05-15T08:17:18;12.35;;;4.63;;
37267;SDS011;23154;52.542;13.362;2023-05-15T08:19:47;11.85;;;4.30;;
37267;SDS011;23154;52.542;13.362;2023-05-15T08:22:13;12.73;;;4.60;;
37267;SDS011;23154;52.542;13.362;2023-05-15T08:24:40;12.50;;;4.65;;
37267;SDS011;23154;52.542;13.362;2023-05-15T08:27:06;15.10;;;4.63;;
37267;SDS011;23154;52.542;13.362;2023-05-15T08:29:33;13.50;;;4.32;;
37267;SDS011;23154;52.542;13.362;2023-05-15T08:32:00;17.15;;;4.72;;
37267;SDS011;23154;52.542;13.362;2023-05-15T08:34:26;12.27;;;4.38;;
37267;SDS011;23154;52.542;13.362;2023-05-15T08:36:52;12.20;;;4.55;;
37267;SDS011;23154;52.542;13.362;2023-05-15T08:39:18;12.20;;;4.22;;
37267;SDS011;23154;52.542;13.362;2023-05-15T08:41:57;16.02;;;5.38;;
37267;SDS011;23154;52.542;13.362;2023-05-15T08:44:25;17.42;;;5.68;;
37267;SDS011;23154;52.542;13.362;2023-05-15T08:46:52;15.15;;;4.72;;
37267;SDS011;23154;52.542;13.362;2023-05-15T08:49:35;15.48;;;4.63;;
37267;SDS011;23154;52.542;13.362;2023-05-15T08:52:02;13.75;;;4.53;;
37267;SDS011;23154;52.542;13.362;2023-05-15T08:54:29;14.45;;;4.40;;
37267;SDS011;23154;52.542;13.362;2023-05-15T08:56:56;16.60;;;5.00;;
37267;SDS011;23154;52.542;13.362;2023-05-15T08:59:22;11.95;;;4.10;;
37267;SDS011;23154;52.542;13.362;2023-05-15T09:01:49;12.02;;;4.45;;
37267;SDS011;23154;52.542;13.362;2023-05-15T09:04:15;12.98;;;4.40;;
37267;SDS011;23154;52.542;13.362;2023-05-15T09:06:41;15.18;;;4.55;;
37267;SDS011;23154;52.542;13.362;2023-05-15T09:09:09;10.30;;;3.80;;
37267;SDS011;23154;52.542;13.362;2023-05-15T09:11:38;12.80;;;4.57;;
37267;SDS011;23154;52.542;13.362;2023-05-15T09:14:06;12.40;;;3.95;;
37267;SDS011;23154;52.542;13.362;2023-05-15T09:16:33;15.45;;;4.85;;
37267;SDS011;23154;52.542;13.362;2023-05-15T09:18:59;14.85;;;4.78;;
37267;SDS011;23154;52.542;13.362;2023-05-15T09:21:26;14.57;;;4.28;;
37267;SDS011;23154;52.542;13.362;2023-05-15T09:23:54;11.45;;;4.20;;
37267;SDS011;23154;52.542;13.362;2023-05-15T09:26:20;13.27;;;4.10;;
37267;SDS011;23154;52.542;13.362;2023-05-15T09:28:46;11.32;;;4.00;;
37267;SDS011;23154;52.542;13.362;2023-05-15T09:31:13;13.55;;;4.22;;
37267;SDS011;23154;52.542;13.362;2023-05-15T09:33:39;10.30;;;3.70;;
37267;SDS011;23154;52.542;13.362;2023-05-15T09:36:06;13.40;;;4.05;;
37267;SDS011;23154;52.542;13.362;2023-05-15T09:38:42;12.52;;;4.13;;
37267;SDS011;23154;52.542;13.362;2023-05-15T09:41:12;13.27;;;4.22;;
37267;SDS011;23154;52.542;13.362;2023-05-15T09:43:38;12.43;;;4.50;;
37267;SDS011;23154;52.542;13.362;2023-05-15T09:46:05;10.77;;;3.72;;
37267;SDS011;23154;52.542;13.362;2023-05-15T09:48:32;12.90;;;4.18;;
37267;SDS011;23154;52.542;13.362;2023-05-15T09:50:59;11.85;;;3.85;;
37267;SDS011;23154;52.542;13.362;2023-05-15T09:53:26;11.60;;;3.80;;
37267;SDS011;23154;52.542;13.362;2023-05-15T09:55:53;11.68;;;4.20;;
37267;SDS011;23154;52.542;13.362;2023-05-15T09:58:19;15.82;;;5.15;;
37267;SDS011;23154;52.542;13.362;2023-05-15T10:00:45;12.88;;;4.68;;
37267;SDS011;23154;52.542;13.362;2023-05-15T10:03:12;14.45;;;4.30;;
37267;SDS011;23154;52.542;13.362;2023-05-15T10:05:38;11.52;;;4.20;;
37267;SDS011;23154;52.542;13.362;2023-05-15T10:08:04;14.07;;;4.78;;
37267;SDS011;23154;52.542;13.362;2023-05-15T10:10:31;11.60;;;4.38;;
37267;SDS011;23154;52.542;13.362;2023-05-15T10:12:58;12.00;;;4.30;;
37267;SDS011;23154;52.542;13.362;2023-05-15T10:15:27;14.68;;;4.18;;
37267;SDS011;23154;52.542;13.362;2023-05-15T10:17:54;12.68;;;4.15;;
37267;SDS011;23154;52.542;13.362;2023-05-15T10:20:23;11.10;;;3.80;;
37267;SDS011;23154;52.542;13.362;2023-05-15T10:22:50;9.80;;;3.37;;
37267;SDS011;23154;52.542;13.362;2023-05-15T10:25:19;11.38;;;3.70;;
37267;SDS011;23154;52.542;13.362;2023-05-15T10:27:46;11.75;;;4.05;;
37267;SDS011;23154;52.542;13.362;2023-05-15T10:30:14;8.80;;;3.25;;
37267;SDS011;23154;52.542;13.362;2023-05-15T10:32:41;12.23;;;3.95;;
37267;SDS011;23154;52.542;13.362;2023-05-15T10:35:11;11.10;;;3.90;;
37267;SDS011;23154;52.542;13.362;2023-05-15T10:37:39;11.68;;;3.85;;
37267;SDS011;23154;52.542;13.362;2023-05-15T10:40:07;11.10;;;3.55;;
37267;SDS011;23154;52.542;13.362;2023-05-15T10:42:34;12.32;;;3.85;;
37267;SDS011;23154;52.542;13.362;2023-05-15T10:45:01;10.30;;;3.70;;
37267;SDS011;23154;52.542;13.362;2023-05-15T10:47:28;8.10;;;3.03;;
37267;SDS011;23154;52.542;13.362;2023-05-15T10:49:54;11.85;;;4.22;;
37267;SDS011;23154;52.542;13.362;2023-05-15T10:52:21;11.45;;;3.58;;
37267;SDS011;23154;52.542;13.362;2023-05-15T10:54:47;10.40;;;3.58;;
37267;SDS011;23154;52.542;13.362;2023-05-15T10:57:13;7.80;;;2.80;;
37267;SDS011;23154;52.542;13.362;2023-05-15T10:59:39;14.07;;;4.35;;
37267;SDS011;23154;52.542;13.362;2023-05-15T11:02:24;9.00;;;3.08;;
37267;SDS011;23154;52.542;13.362;2023-05-15T11:04:58;10.07;;;2.88;;
37267;SDS011;23154;52.542;13.362;2023-05-15T11:07:24;7.35;;;2.90;;
37267;SDS011;23154;52.542;13.362;2023-05-15T11:09:50;7.93;;;2.53;;
37267;SDS011;23154;52.542;13.362;2023-05-15T11:12:17;7.72;;;2.85;;
37267;SDS011;23154;52.542;13.362;2023-05-15T11:17:22;10.35;;;2.83;;
37267;SDS011;23154;52.542;13.362;2023-05-15T11:22:15;9.27;;;2.80;;
37267;SDS011;23154;52.542;13.362;2023-05-15T11:27:24;9.05;;;2.97;;
37267;SDS011;23154;52.542;13.362;2023-05-15T11:35:37;7.80;;;2.97;;
37267;SDS011;23154;52.542;13.362;2023-05-15T11:40:30;10.50;;;2.90;;
37267;SDS011;23154;52.542;13.362;2023-05-15T11:45:25;9.80;;;3.50;;
37267;SDS011;23154;52.542;13.362;2023-05-15T11:47:52;10.90;;;2.80;;
37267;SDS011;23154;52.542;13.362;2023-05-15T11:50:18;10.48;;;3.22;;
37267;SDS011;23154;52.542;13.362;2023-05-15T11:52:45;9.52;;;3.17;;
37267;SDS011;23154;52.542;13.362;2023-05-15T11:55:11;11.70;;;3.65;;
37267;SDS011;23154;52.542;13.362;2023-05-15T11:57:38;9.02;;;2.58;;
37267;SDS011;23154;52.542;13.362;2023-05-15T12:00:04;9.95;;;2.78;;
37267;SDS011;23154;52.542;13.362;2023-05-15T12:02:34;8.07;;;3.10;;
37267;SDS011;23154;52.542;13.362;2023-05-15T12:05:00;8.93;;;2.97;;
37267;SDS011;23154;52.542;13.362;2023-05-15T12:07:26;8.00;;;2.63;;
37267;SDS011;23154;52.542;13.362;2023-05-15T12:09:53;6.85;;;2.50;;
37267;SDS011;23154;52.542;13.362;2023-05-15T12:12:19;8.30;;;2.75;;
37267;SDS011;23154;52.542;13.362;2023-05-15T12:14:45;6.20;;;2.60;;
37267;SDS011;23154;52.542;13.362;2023-05-15T12:17:11;7.10;;;2.70;;
37267;SDS011;23154;52.542;13.362;2023-05-15T12:19:37;6.25;;;2.55;;
37267;SDS011;23154;52.542;13.362;2023-05-15T12:22:04;8.65;;;2.83;;
37267;SDS011;23154;52.542;13.362;2023-05-15T12:24:31;7.38;;;2.80;;
37267;SDS011;23154;52.542;13.362;2023-05-15T12:27:00;5.80;;;2.20;;
37267;SDS011;23154;52.542;13.362;2023-05-15T12:29:26;6.82;;;2.10;;
37267;SDS011;23154;52.542;13.362;2023-05-15T12:31:52;6.00;;;2.20;;
37267;SDS011;23154;52.542;13.362;2023-05-15T12:34:19;6.28;;;2.17;;
37267;SDS011;23154;52.542;13.362;2023-05-15T12:36:45;7.30;;;2.40;;
37267;SDS011;23154;52.542;13.362;2023-05-15T12:39:11;5.85;;;2.40;;
37267;SDS011;23154;52.542;13.362;2023-05-15T12:41:37;8.88;;;2.50;;
37267;SDS011;23154;52.542;13.362;2023-05-15T12:44:03;7.68;;;2.28;;
37267;SDS011;23154;52.542;13.362;2023-05-15T12:46:30;7.72;;;2.50;;
37267;SDS011;23154;52.542;13.362;2023-05-15T12:48:57;7.55;;;2.65;;
37267;SDS011;23154;52.542;13.362;2023-05-15T12:51:23;7.72;;;2.30;;
37267;SDS011;23154;52.542;13.362;2023-05-15T12:53:53;5.85;;;2.38;;
37267;SDS011;23154;52.542;13.362;2023-05-15T12:56:21;20.00;;;13.20;;
37267;SDS011;23154;52.542;13.362;2023-05-15T12:58:47;8.82;;;3.13;;
37267;SDS011;23154;52.542;13.362;2023-05-15T13:01:13;9.25;;;2.25;;
37267;SDS011;23154;52.542;13.362;2023-05-15T13:03:44;9.57;;;3.10;;
37267;SDS011;23154;52.542;13.362;2023-05-15T13:06:10;5.07;;;1.63;;
37267;SDS011;23154;52.542;13.362;2023-05-15T13:08:39;6.85;;;2.13;;
37267;SDS011;23154;52.542;13.362;2023-05-15T13:11:09;7.10;;;2.28;;
37267;SDS011;23154;52.542;13.362;2023-05-15T13:13:42;9.80;;;2.25;;
37267;SDS011;23154;52.542;13.362;2023-05-15T13:16:18;5.50;;;2.15;;
37267;SDS011;23154;52.542;13.362;2023-05-15T13:18:44;3.63;;;1.90;;
37267;SDS011;23154;52.542;13.362;2023-05-15T13:21:10;5.60;;;2.20;;
37267;SDS011;23154;52.542;13.362;2023-05-15T13:23:36;8.65;;;2.22;;
37267;SDS011;23154;52.542;13.362;2023-05-15T13:26:02;4.72;;;2.15;;
37267;SDS011;23154;52.542;13.362;2023-05-15T13:28:28;5.55;;;2.05;;
37267;SDS011;23154;52.542;13.362;2023-05-15T13:30:54;6.25;;;2.00;;
37267;SDS011;23154;52.542;13.362;2023-05-15T13:33:20;6.55;;;2.10;;
37267;SDS011;23154;52.542;13.362;2023-05-15T13:35:46;5.90;;;1.98;;
37267;SDS011;23154;52.542;13.362;2023-05-15T13:38:12;3.85;;;1.65;;
37267;SDS011;23154;52.542;13.362;2023-05-15T13:40:39;8.35;;;1.88;;
37267;SDS011;23154;52.542;13.362;2023-05-15T13:43:05;4.43;;;1.58;;
37267;SDS011;23154;52.542;13.362;2023-05-15T13:45:31;4.72;;;1.95;;
37267;SDS011;23154;52.542;13.362;2023-05-15T13:47:57;4.68;;;1.50;;
37267;SDS011;23154;52.542;13.362;2023-05-15T13:50:23;3.97;;;1.40;;
37267;SDS011;23154;52.542;13.362;2023-05-15T13:52:49;3.03;;;1.52;;
37267;SDS011;23154;52.542;13.362;2023-05-15T13:55:15;3.58;;;1.50;;
37267;SDS011;23154;52.542;13.362;2023-05-15T13:57:41;5.00;;;1.88;;
37267;SDS011;23154;52.542;13.362;2023-05-15T14:00:09;5.97;;;2.08;;
37267;SDS011;23154;52.542;13.362;2023-05-15T14:02:40;8.85;;;1.95;;
37267;SDS011;23154;52.542;13.362;2023-05-15T14:05:07;6.03;;;2.03;;
37267;SDS011;23154;52.542;13.362;2023-05-15T14:07:33;6.50;;;2.00;;
37267;SDS011;23154;52.542;13.362;2023-05-15T14:09:59;4.50;;;1.88;;
37267;SDS011;23154;52.542;13.362;2023-05-15T14:12:25;5.85;;;2.17;;
37267;SDS011;23154;52.542;13.362;2023-05-15T14:14:51;4.72;;;1.75;;
37267;SDS011;23154;52.542;13.362;2023-05-15T14:17:17;4.57;;;2.10;;
37267;SDS011;23154;52.542;13.362;2023-05-15T14:19:43;6.90;;;2.30;;
37267;SDS011;23154;52.542;13.362;2023-05-15T14:22:09;6.55;;;2.55;;
37267;SDS011;23154;52.542;13.362;2023-05-15T14:24:35;7.93;;;2.30;;
37267;SDS011;23154;52.542;13.362;2023-05-15T14:27:01;6.70;;;2.50;;
37267;SDS011;23154;52.542;13.362;2023-05-15T14:29:27;5.28;;;2.30;;
37267;SDS011;23154;52.542;13.362;2023-05-15T14:31:53;6.22;;;2.38;;
37267;SDS011;23154;52.542;13.362;2023-05-15T14:34:19;8.05;;;2.60;;
37267;SDS011;23154;52.542;13.362;2023-05-15T14:36:46;8.27;;;2.35;;
37267;SDS011;23154;52.542;13.362;2023-05-15T14:39:16;6.32;;;2.35;;
37267;SDS011;23154;52.542;13.362;2023-05-15T14:41:42;6.72;;;2.55;;
37267;SDS011;23154;52.542;13.362;2023-05-15T14:44:08;7.70;;;2.35;;
37267;SDS011;23154;52.542;13.362;2023-05-15T14:46:35;6.82;;;2.30;;
37267;SDS011;23154;52.542;13.362;2023-05-15T14:49:02;7.10;;;2.45;;
37267;SDS011;23154;52.542;13.362;2023-05-15T14:51:28;8.48;;;2.13;;